createdAt,value
2023-05-07T00:02:19.436Z,9.02
2023-05-07T00:04:47.829Z,8.82
2023-05-07T00:07:17.745Z,8.90
2023-05-07T00:09:46.090Z,8.77
2023-05-07T00:12:14.710Z,9.77
2023-05-07T00:14:42.992Z,9.05
2023-05-07T00:17:11.375Z,8.65
2023-05-07T00:19:39.875Z,9.85
2023-05-07T00:22:12.781Z,9.82
2023-05-07T00:24:42.565Z,10.77
2023-05-07T00:27:13.220Z,11.38
2023-05-07T00:29:48.645Z,10.07
2023-05-07T00:32:19.396Z,9.98
2023-05-07T00:34:59.803Z,9.70
2023-05-07T00:37:28.119Z,9.77
2023-05-07T00:39:58.408Z,10.40
2023-05-07T00:42:26.837Z,9.90
2023-05-07T00:44:56.340Z,10.70
2023-05-07T00:47:24.726Z,9.48
2023-05-07T00:49:53.039Z,10.32
2023-05-07T00:52:22.725Z,10.88
2023-05-07T00:54:57.815Z,11.07
2023-05-07T00:57:27.693Z,9.35
2023-05-07T01:00:02.666Z,9.75
2023-05-07T01:02:38.457Z,10.13
2023-05-07T01:05:07.809Z,10.32
2023-05-07T01:07:37.551Z,9.52
2023-05-07T01:10:07.335Z,10.57
2023-05-07T01:12:39.682Z,10.13
2023-05-07T01:15:10.973Z,10.43
2023-05-07T01:17:39.495Z,11.15
2023-05-07T01:20:11.970Z,12.55
2023-05-07T01:22:46.942Z,11.38
2023-05-07T01:25:17.322Z,12.45
2023-05-07T01:27:56.707Z,12.25
2023-05-07T01:30:32.212Z,13.25
2023-05-07T01:33:03.572Z,10.63
2023-05-07T01:35:40.199Z,10.95
2023-05-07T01:38:10.606Z,10.48
2023-05-07T01:40:38.974Z,11.95
2023-05-07T01:43:07.808Z,12.10
2023-05-07T01:45:37.729Z,10.55
2023-05-07T01:48:06.570Z,9.73
2023-05-07T01:50:35.019Z,11.50
2023-05-07T01:53:04.356Z,10.80
2023-05-07T01:55:34.128Z,9.90
2023-05-07T01:58:03.101Z,9.70
2023-05-07T02:00:31.855Z,9.75
2023-05-07T02:03:00.890Z,10.43
2023-05-07T02:05:40.481Z,10.80
2023-05-07T02:08:17.978Z,8.88
2023-05-07T02:10:47.632Z,9.52
2023-05-07T02:13:16.011Z,9.63
2023-05-07T02:15:47.158Z,9.07
2023-05-07T02:18:17.645Z,9.20
2023-05-07T02:20:46.059Z,8.05
2023-05-07T02:23:14.289Z,7.85
2023-05-07T02:25:42.683Z,8.45
2023-05-07T02:28:14.743Z,7.80
2023-05-07T02:31:03.430Z,8.52
2023-05-07T02:33:32.229Z,8.15
2023-05-07T02:36:16.943Z,7.78
2023-05-07T02:38:56.991Z,7.72
2023-05-07T02:41:29.324Z,7.40
2023-05-07T02:43:59.641Z,6.80
2023-05-07T02:46:28.630Z,7.40
2023-05-07T02:49:04.357Z,7.15
2023-05-07T02:51:35.570Z,6.95
2023-05-07T02:54:06.891Z,6.95
2023-05-07T02:56:37.586Z,7.72
2023-05-07T02:59:09.729Z,7.30
2023-05-07T03:01:42.759Z,6.53
2023-05-07T03:04:11.675Z,6.25
2023-05-07T03:06:40.031Z,6.55
2023-05-07T03:09:08.484Z,6.82
2023-05-07T03:11:39.906Z,6.82
2023-05-07T03:14:09.461Z,7.10
2023-05-07T03:16:38.460Z,6.65
2023-05-07T03:19:09.130Z,6.75
2023-05-07T03:21:37.495Z,6.57
2023-05-07T03:24:06.336Z,6.35
2023-05-07T03:26:36.983Z,7.22
2023-05-07T03:29:05.281Z,6.72
2023-05-07T03:31:35.281Z,6.97
2023-05-07T03:34:04.278Z,6.57
2023-05-07T03:36:32.610Z,7.03
2023-05-07T03:39:01.074Z,6.53
2023-05-07T03:41:37.511Z,7.18
2023-05-07T03:44:06.069Z,6.95
2023-05-07T03:46:36.138Z,6.43
2023-05-07T03:49:04.958Z,7.53
2023-05-07T03:51:33.564Z,7.10
2023-05-07T03:54:02.196Z,6.70
2023-05-07T03:56:32.271Z,6.78
2023-05-07T03:59:02.925Z,6.45
2023-05-07T04:01:35.691Z,6.57
2023-05-07T04:04:16.465Z,7.10
2023-05-07T04:06:47.491Z,5.90
2023-05-07T04:09:22.549Z,6.38
2023-05-07T04:11:51.097Z,6.80
2023-05-07T04:14:19.545Z,6.72
2023-05-07T04:16:51.715Z,5.97
2023-05-07T04:19:20.964Z,6.53
2023-05-07T04:21:52.502Z,6.82
2023-05-07T04:24:23.368Z,5.93
2023-05-07T04:26:52.335Z,6.30
2023-05-07T04:29:25.261Z,6.45
2023-05-07T04:31:59.849Z,6.57
2023-05-07T04:34:31.658Z,6.18
2023-05-07T04:37:01.896Z,6.57
2023-05-07T04:39:30.662Z,7.13
2023-05-07T04:41:59.983Z,6.60
2023-05-07T04:44:28.694Z,6.47
2023-05-07T04:47:01.308Z,6.30
2023-05-07T04:49:29.888Z,6.22
2023-05-07T04:51:59.825Z,6.18
2023-05-07T04:54:28.702Z,6.30
2023-05-07T04:56:59.807Z,5.53
2023-05-07T04:59:28.447Z,5.78
2023-05-07T05:01:57.334Z,6.05
2023-05-07T05:04:27.617Z,6.57
2023-05-07T05:06:58.770Z,6.72
2023-05-07T05:09:29.859Z,6.50
2023-05-07T05:11:58.648Z,6.50
2023-05-07T05:14:26.963Z,5.97
2023-05-07T05:16:55.385Z,6.95
2023-05-07T05:19:24.016Z,6.97
2023-05-07T05:21:53.678Z,6.80
2023-05-07T05:24:22.095Z,7.03
2023-05-07T05:26:52.806Z,7.60
2023-05-07T05:29:21.160Z,7.18
2023-05-07T05:31:54.434Z,7.13
2023-05-07T05:34:23.878Z,8.23
2023-05-07T05:36:53.952Z,7.65
2023-05-07T05:39:22.436Z,7.38
2023-05-07T05:41:50.814Z,8.40
2023-05-07T05:44:19.758Z,8.15
2023-05-07T05:46:51.356Z,8.50
2023-05-07T05:49:27.319Z,7.95
2023-05-07T05:51:57.666Z,8.40
2023-05-07T05:54:30.035Z,8.52
2023-05-07T05:57:00.873Z,8.77
2023-05-07T05:59:29.933Z,9.00
2023-05-07T06:01:58.584Z,9.23
2023-05-07T06:04:27.320Z,7.85
2023-05-07T06:06:57.804Z,8.63
2023-05-07T06:09:27.122Z,8.75
2023-05-07T06:11:55.557Z,9.45
2023-05-07T06:14:24.211Z,10.05
2023-05-07T06:16:52.703Z,9.48
2023-05-07T06:19:24.940Z,10.00
2023-05-07T06:21:58.291Z,9.65
2023-05-07T06:24:29.540Z,9.00
2023-05-07T06:26:59.773Z,9.85
2023-05-07T06:29:31.452Z,10.75
2023-05-07T06:32:11.042Z,10.27
2023-05-07T06:34:43.605Z,10.40
2023-05-07T06:37:13.656Z,11.13
2023-05-07T06:40:05.268Z,11.35
2023-05-07T06:42:35.638Z,10.27
2023-05-07T06:45:21.949Z,10.30
2023-05-07T06:47:50.485Z,10.90
2023-05-07T06:50:22.400Z,9.75
2023-05-07T06:52:53.770Z,11.30
2023-05-07T06:55:22.302Z,11.52
2023-05-07T06:57:53.546Z,10.48
2023-05-07T07:00:24.191Z,10.48
2023-05-07T07:03:01.571Z,10.75
2023-05-07T07:05:35.331Z,9.90
2023-05-07T07:08:06.698Z,11.23
2023-05-07T07:10:37.439Z,9.13
2023-05-07T07:13:05.729Z,10.27
2023-05-07T07:15:34.184Z,10.18
2023-05-07T07:18:05.116Z,11.55
2023-05-07T07:20:33.476Z,10.15
2023-05-07T07:23:02.463Z,10.88
2023-05-07T07:25:34.633Z,10.82
2023-05-07T07:28:03.005Z,11.27
2023-05-07T07:30:34.044Z,11.00
2023-05-07T07:33:04.191Z,11.45
2023-05-07T07:35:35.952Z,11.75
2023-05-07T07:38:08.498Z,10.40
2023-05-07T07:40:38.482Z,13.45
2023-05-07T07:43:10.795Z,11.75
2023-05-07T07:45:46.950Z,11.75
2023-05-07T07:48:17.755Z,10.48
2023-05-07T07:50:50.962Z,11.95
2023-05-07T07:53:20.126Z,11.20
2023-05-07T07:55:50.093Z,10.88
2023-05-07T07:58:23.058Z,10.10
2023-05-07T08:00:52.018Z,11.55
2023-05-07T08:03:22.821Z,11.55
2023-05-07T08:05:55.200Z,12.18
2023-05-07T08:08:24.102Z,10.77
2023-05-07T08:10:55.221Z,10.32
2023-05-07T08:13:32.967Z,10.18
2023-05-07T08:16:01.895Z,9.88
2023-05-07T08:18:32.582Z,9.02
2023-05-07T08:21:03.789Z,9.43
2023-05-07T08:23:33.122Z,10.35
2023-05-07T08:26:06.118Z,8.55
2023-05-07T08:28:34.534Z,7.78
2023-05-07T08:31:05.272Z,8.38
2023-05-07T08:33:38.200Z,7.70
2023-05-07T08:36:06.783Z,8.50
2023-05-07T08:38:37.909Z,6.80
2023-05-07T08:41:08.721Z,7.55
2023-05-07T08:43:38.986Z,6.45
2023-05-07T08:46:10.685Z,6.20
2023-05-07T08:48:42.435Z,6.45
2023-05-07T08:51:16.724Z,6.22
2023-05-07T08:53:45.524Z,6.28
2023-05-07T08:56:20.409Z,6.32
2023-05-07T08:58:51.391Z,5.93
2023-05-07T09:01:22.362Z,5.25
2023-05-07T09:03:56.855Z,4.57
2023-05-07T09:06:25.808Z,5.45
2023-05-07T09:08:54.882Z,5.50
2023-05-07T09:11:27.160Z,5.03
2023-05-07T09:13:58.732Z,4.70
2023-05-07T09:16:30.983Z,3.72
2023-05-07T09:19:04.680Z,3.38
2023-05-07T09:21:33.246Z,4.75
2023-05-07T09:24:07.145Z,4.18
2023-05-07T09:26:44.310Z,4.25
2023-05-07T09:29:13.400Z,3.70
2023-05-07T09:31:42.341Z,3.60
2023-05-07T09:34:14.270Z,3.40
2023-05-07T09:36:45.610Z,3.08
2023-05-07T09:39:14.142Z,2.90
2023-05-07T09:41:50.418Z,3.60
2023-05-07T09:44:29.826Z,4.03
2023-05-07T09:47:01.564Z,3.80
2023-05-07T09:49:37.641Z,3.53
2023-05-07T09:52:11.543Z,3.55
2023-05-07T09:54:46.129Z,3.60
2023-05-07T09:57:19.828Z,3.38
2023-05-07T09:59:54.458Z,3.65
2023-05-07T10:02:23.851Z,3.65
2023-05-07T10:04:58.347Z,3.55
2023-05-07T10:07:37.318Z,2.75
2023-05-07T10:10:10.217Z,2.50
2023-05-07T10:12:44.607Z,2.88
2023-05-07T10:15:27.428Z,2.58
2023-05-07T10:17:58.705Z,2.70
2023-05-07T10:20:31.040Z,2.40
2023-05-07T10:23:00.036Z,2.55
2023-05-07T10:25:38.817Z,3.38
2023-05-07T10:28:20.997Z,3.58
2023-05-07T10:30:57.531Z,2.85
2023-05-07T10:33:34.674Z,2.67
2023-05-07T10:36:05.487Z,2.50
2023-05-07T10:38:34.913Z,2.58
2023-05-07T10:41:17.603Z,2.30
2023-05-07T10:43:50.751Z,3.30
2023-05-07T10:46:25.260Z,2.67
2023-05-07T10:49:13.447Z,3.40
2023-05-07T10:51:48.324Z,3.20
2023-05-07T10:54:28.697Z,4.20
2023-05-07T10:57:26.894Z,3.22
2023-05-07T10:59:59.070Z,2.63
2023-05-07T11:02:47.389Z,2.92
2023-05-07T11:05:23.085Z,2.15
2023-05-07T11:08:02.881Z,2.30
2023-05-07T11:10:54.399Z,2.42
2023-05-07T11:13:46.466Z,2.33
2023-05-07T11:16:39.787Z,2.50
2023-05-07T11:19:43.768Z,2.72
2023-05-07T11:22:40.776Z,2.33
2023-05-07T11:25:31.997Z,2.38
2023-05-07T11:28:08.516Z,2.95
2023-05-07T11:30:41.595Z,2.90
2023-05-07T11:33:15.857Z,2.90
2023-05-07T11:35:44.998Z,2.85
2023-05-07T11:38:17.889Z,2.97
2023-05-07T11:40:54.917Z,2.97
2023-05-07T11:43:23.366Z,3.47
2023-05-07T11:45:51.817Z,3.30
2023-05-07T11:48:21.751Z,3.35
2023-05-07T11:50:53.888Z,2.70
2023-05-07T11:53:26.902Z,2.45
2023-05-07T11:55:57.854Z,3.22
2023-05-07T11:58:26.827Z,3.20
2023-05-07T12:00:55.460Z,2.90
2023-05-07T12:03:25.501Z,3.90
2023-05-07T12:05:56.208Z,3.30
2023-05-07T12:08:24.673Z,3.53
2023-05-07T12:10:55.490Z,3.33
2023-05-07T12:13:25.094Z,3.25
2023-05-07T12:15:53.746Z,3.40
2023-05-07T12:18:22.541Z,3.70
2023-05-07T12:20:52.346Z,4.32
2023-05-07T12:23:30.561Z,4.90
2023-05-07T12:25:58.941Z,4.60
2023-05-07T12:28:29.737Z,4.30
2023-05-07T12:31:00.659Z,4.47
2023-05-07T12:33:31.998Z,5.28
2023-05-07T12:36:08.245Z,4.30
2023-05-07T12:38:42.931Z,4.45
2023-05-07T12:41:13.291Z,4.03
2023-05-07T12:43:41.648Z,4.15
2023-05-07T12:46:10.506Z,4.03
2023-05-07T12:48:39.674Z,4.30
2023-05-07T12:51:12.148Z,4.10
2023-05-07T12:53:44.955Z,3.80
2023-05-07T12:56:13.427Z,4.30
2023-05-07T12:58:41.771Z,4.32
2023-05-07T13:01:10.999Z,4.18
2023-05-07T13:03:40.293Z,3.70
2023-05-07T13:06:13.182Z,3.95
2023-05-07T13:08:43.912Z,3.70
2023-05-07T13:11:12.900Z,4.30
2023-05-07T13:13:48.698Z,3.97
2023-05-07T13:16:17.172Z,4.30
2023-05-07T13:18:46.830Z,4.50
2023-05-07T13:21:16.561Z,4.18
2023-05-07T13:23:44.856Z,4.05
2023-05-07T13:26:26.349Z,4.13
2023-05-07T13:28:55.855Z,4.20
2023-05-07T13:31:24.176Z,4.10
2023-05-07T13:33:53.572Z,4.05
2023-05-07T13:36:25.747Z,4.13
2023-05-07T13:38:54.008Z,3.72
2023-05-07T13:41:22.459Z,3.72
2023-05-07T13:44:00.106Z,3.10
2023-05-07T13:46:28.758Z,5.22
2023-05-07T13:48:57.064Z,4.70
2023-05-07T13:51:35.830Z,4.30
2023-05-07T13:54:06.641Z,4.70
2023-05-07T13:56:35.028Z,3.65
2023-05-07T13:59:06.117Z,3.05
2023-05-07T14:01:34.593Z,3.63
2023-05-07T14:04:03.037Z,3.60
2023-05-07T14:06:35.543Z,4.13
2023-05-07T14:09:04.013Z,4.07
2023-05-07T14:11:39.401Z,4.95
2023-05-07T14:14:07.860Z,6.47
2023-05-07T14:16:36.331Z,5.20
2023-05-07T14:19:09.452Z,5.18
2023-05-07T14:21:44.101Z,5.65
2023-05-07T14:24:13.468Z,5.13
2023-05-07T14:26:41.888Z,5.13
2023-05-07T14:29:10.321Z,5.10
2023-05-07T14:31:38.741Z,7.28
2023-05-07T14:34:07.299Z,6.55
2023-05-07T14:36:38.885Z,6.53
2023-05-07T14:39:11.648Z,6.05
2023-05-07T14:41:41.038Z,6.13
2023-05-07T14:44:09.338Z,6.28
2023-05-07T14:46:37.980Z,5.60
2023-05-07T14:49:06.739Z,6.65
2023-05-07T14:51:37.578Z,5.28
2023-05-07T14:54:08.204Z,5.45
2023-05-07T14:56:38.804Z,4.50
2023-05-07T14:59:18.416Z,3.03
2023-05-07T15:01:47.149Z,2.30
2023-05-07T15:04:15.762Z,2.08
2023-05-07T15:06:44.791Z,2.10
2023-05-07T15:09:16.019Z,2.30
2023-05-07T15:11:45.812Z,2.65
2023-05-07T15:14:14.230Z,1.88
2023-05-07T15:16:42.490Z,2.08
2023-05-07T15:19:13.334Z,2.45
2023-05-07T15:21:41.706Z,3.50
2023-05-07T15:24:15.019Z,4.65
2023-05-07T15:26:45.945Z,5.00
2023-05-07T15:29:16.688Z,6.18
2023-05-07T15:31:49.577Z,6.35
2023-05-07T15:34:20.481Z,7.35
2023-05-07T15:36:51.045Z,6.95
2023-05-07T15:39:19.805Z,7.20
2023-05-07T15:41:49.508Z,7.13
2023-05-07T15:44:17.834Z,5.97
2023-05-07T15:46:46.468Z,5.45
2023-05-07T15:49:14.804Z,4.80
2023-05-07T15:51:45.485Z,4.57
2023-05-07T15:54:13.853Z,3.60
2023-05-07T15:56:42.115Z,3.72
2023-05-07T15:59:12.938Z,5.95
2023-05-07T16:01:42.969Z,5.05
2023-05-07T16:04:11.326Z,5.43
2023-05-07T16:06:42.017Z,6.95
2023-05-07T16:09:10.861Z,7.72
2023-05-07T16:11:39.102Z,7.22
2023-05-07T16:14:07.386Z,7.13
2023-05-07T16:16:38.131Z,6.68
2023-05-07T16:19:13.572Z,7.78
2023-05-07T16:21:41.986Z,7.05
2023-05-07T16:24:15.013Z,7.95
2023-05-07T16:26:48.079Z,7.15
2023-05-07T16:29:16.786Z,6.43
2023-05-07T16:31:51.010Z,7.40
2023-05-07T16:34:19.336Z,6.72
2023-05-07T16:36:47.720Z,5.97
2023-05-07T16:39:15.969Z,6.40
2023-05-07T16:41:45.543Z,7.10
2023-05-07T16:44:16.359Z,5.97
2023-05-07T16:46:48.640Z,6.25
2023-05-07T16:49:17.240Z,7.32
2023-05-07T16:51:47.873Z,6.30
2023-05-07T16:54:16.214Z,5.60
2023-05-07T16:56:45.010Z,6.63
2023-05-07T16:59:13.351Z,6.43
2023-05-07T17:01:43.991Z,6.43
2023-05-07T17:04:14.388Z,6.40
2023-05-07T17:06:42.786Z,5.70
2023-05-07T17:09:12.153Z,6.82
2023-05-07T17:11:40.922Z,6.90
2023-05-07T17:14:12.181Z,6.00
2023-05-07T17:16:40.625Z,6.20
2023-05-07T17:19:09.085Z,5.57
2023-05-07T17:21:38.649Z,6.75
2023-05-07T17:24:07.470Z,7.60
2023-05-07T17:26:36.694Z,6.40
2023-05-07T17:29:19.930Z,7.03
2023-05-07T17:31:48.665Z,6.20
2023-05-07T17:34:21.675Z,6.35
2023-05-07T17:36:51.631Z,6.80
2023-05-07T17:39:20.001Z,6.28
2023-05-07T17:41:48.356Z,7.93
2023-05-07T17:44:21.113Z,7.38
2023-05-07T17:46:51.785Z,10.35
2023-05-07T17:49:22.367Z,8.65
2023-05-07T17:51:55.275Z,6.53
2023-05-07T17:54:30.352Z,7.55
2023-05-07T17:56:58.777Z,6.72
2023-05-07T17:59:31.997Z,6.78
2023-05-07T18:02:00.986Z,7.07
2023-05-07T18:04:29.746Z,6.68
2023-05-07T18:07:01.856Z,7.05
2023-05-07T18:09:30.568Z,7.60
2023-05-07T18:11:58.814Z,7.45
2023-05-07T18:14:27.048Z,7.82
2023-05-07T18:16:55.468Z,7.05
2023-05-07T18:19:28.042Z,8.02
2023-05-07T18:22:03.206Z,8.20
2023-05-07T18:24:31.705Z,8.00
2023-05-07T18:27:02.278Z,7.43
2023-05-07T18:29:33.031Z,8.13
2023-05-07T18:32:04.008Z,6.72
2023-05-07T18:34:37.119Z,7.82
2023-05-07T18:37:12.674Z,8.50
2023-05-07T18:39:41.056Z,9.52
2023-05-07T18:42:09.419Z,9.05
2023-05-07T18:44:40.304Z,8.43
2023-05-07T18:47:08.956Z,8.43
2023-05-07T18:49:41.881Z,8.48
2023-05-07T18:52:13.065Z,8.43
2023-05-07T18:54:41.654Z,8.63
2023-05-07T18:57:09.967Z,7.70
2023-05-07T18:59:39.741Z,7.53
2023-05-07T19:02:08.051Z,8.85
2023-05-07T19:04:36.425Z,8.88
2023-05-07T19:07:04.815Z,7.10
2023-05-07T19:09:34.541Z,7.22
2023-05-07T19:12:05.237Z,6.35
2023-05-07T19:14:34.055Z,7.13
2023-05-07T19:17:02.352Z,6.15
2023-05-07T19:19:30.808Z,6.15
2023-05-07T19:21:59.418Z,6.20
2023-05-07T19:24:30.123Z,6.53
2023-05-07T19:26:59.986Z,5.93
2023-05-07T19:29:28.759Z,5.65
2023-05-07T19:31:59.892Z,6.43
2023-05-07T19:34:31.172Z,6.00
2023-05-07T19:37:01.652Z,6.90
2023-05-07T19:39:37.285Z,6.22
2023-05-07T19:42:09.501Z,6.00
2023-05-07T19:44:40.182Z,5.53
2023-05-07T19:47:09.340Z,5.32
2023-05-07T19:49:37.686Z,5.75
2023-05-07T19:52:06.080Z,6.05
2023-05-07T19:54:36.836Z,5.20
2023-05-07T19:57:06.743Z,5.65
2023-05-07T19:59:35.543Z,5.90
2023-05-07T20:02:05.995Z,5.32
2023-05-07T20:04:38.087Z,5.55
2023-05-07T20:07:06.575Z,5.82
2023-05-07T20:09:34.870Z,5.45
2023-05-07T20:12:03.225Z,5.85
2023-05-07T20:14:33.129Z,6.30
2023-05-07T20:17:01.559Z,6.35
2023-05-07T20:19:30.001Z,6.45
2023-05-07T20:21:58.526Z,6.80
2023-05-07T20:24:26.868Z,6.85
2023-05-07T20:26:57.766Z,6.35
2023-05-07T20:29:28.743Z,5.63
2023-05-07T20:31:58.578Z,5.40
2023-05-07T20:34:27.237Z,6.63
2023-05-07T20:37:00.411Z,6.25
2023-05-07T20:39:31.104Z,7.13
2023-05-07T20:42:01.006Z,6.68
2023-05-07T20:44:31.481Z,6.45
2023-05-07T20:47:01.338Z,7.00
2023-05-07T20:49:38.603Z,6.93
2023-05-07T20:52:25.405Z,6.78
2023-05-07T20:54:53.776Z,6.47
2023-05-07T20:57:22.280Z,7.32
2023-05-07T20:59:52.956Z,8.90
2023-05-07T21:02:23.199Z,7.63
2023-05-07T21:04:52.464Z,6.78
2023-05-07T21:07:20.938Z,7.07
2023-05-07T21:09:49.270Z,7.70
2023-05-07T21:12:17.568Z,8.13
2023-05-07T21:14:45.891Z,7.80
2023-05-07T21:17:18.880Z,7.63
2023-05-07T21:19:50.824Z,7.70
2023-05-07T21:22:20.328Z,7.07
2023-05-07T21:24:51.107Z,6.82
2023-05-07T21:27:19.568Z,7.25
2023-05-07T21:29:47.889Z,6.80
2023-05-07T21:32:18.522Z,7.68
2023-05-07T21:34:47.524Z,7.68
2023-05-07T21:37:20.173Z,7.15
2023-05-07T21:39:48.611Z,6.45
2023-05-07T21:42:17.052Z,7.43
2023-05-07T21:44:45.584Z,7.05
2023-05-07T21:47:18.549Z,6.80
2023-05-07T21:49:46.908Z,6.38
2023-05-07T21:52:17.134Z,6.60
2023-05-07T21:54:45.500Z,6.50
2023-05-07T21:57:13.879Z,6.65
2023-05-07T21:59:42.332Z,5.50
2023-05-07T22:02:10.634Z,6.38
2023-05-07T22:04:39.033Z,5.97
2023-05-07T22:07:07.368Z,5.88
2023-05-07T22:09:39.077Z,6.28
2023-05-07T22:12:07.505Z,5.57
2023-05-07T22:14:35.919Z,6.18
2023-05-07T22:17:04.284Z,6.63
2023-05-07T22:19:32.535Z,6.38
2023-05-07T22:22:01.130Z,6.65
2023-05-07T22:24:30.887Z,6.30
2023-05-07T22:27:00.786Z,6.30
2023-05-07T22:29:29.533Z,5.90
2023-05-07T22:32:00.266Z,6.75
2023-05-07T22:34:28.797Z,5.85
2023-05-07T22:36:59.932Z,6.15
2023-05-07T22:39:31.152Z,6.50
2023-05-07T22:42:00.970Z,5.75
2023-05-07T22:44:29.365Z,5.97
2023-05-07T22:47:04.404Z,6.28
2023-05-07T22:49:32.763Z,5.25
2023-05-07T22:52:03.377Z,6.18
2023-05-07T22:54:34.873Z,5.90
2023-05-07T22:57:09.162Z,5.68
2023-05-07T22:59:42.021Z,6.18
2023-05-07T23:02:10.444Z,5.75
2023-05-07T23:04:38.742Z,5.18
2023-05-07T23:07:07.679Z,5.88
2023-05-07T23:09:36.102Z,5.70
2023-05-07T23:12:06.077Z,5.32
2023-05-07T23:14:34.516Z,5.82
2023-05-07T23:17:02.824Z,6.30
2023-05-07T23:19:31.450Z,5.93
2023-05-07T23:21:59.834Z,5.85
2023-05-07T23:24:30.772Z,5.15
2023-05-07T23:27:01.507Z,6.57
2023-05-07T23:29:31.549Z,5.88
2023-05-07T23:31:59.838Z,6.00
2023-05-07T23:34:28.273Z,6.75
2023-05-07T23:36:56.843Z,6.25
2023-05-07T23:39:25.083Z,5.70
2023-05-07T23:41:53.409Z,6.43
2023-05-07T23:44:26.389Z,7.13
2023-05-07T23:46:56.058Z,5.90
2023-05-07T23:49:24.293Z,6.07
2023-05-07T23:51:52.551Z,6.65
2023-05-07T23:54:23.073Z,6.05
2023-05-07T23:56:51.494Z,6.57
2023-05-07T23:59:19.781Z,6.68
